createdAt,value
2022-12-19T00:03:14.628Z,28.17
2022-12-19T00:06:36.648Z,28.20
2022-12-19T00:09:58.546Z,30.25
2022-12-19T00:13:07.893Z,27.08
2022-12-19T00:16:21.649Z,28.62
2022-12-19T00:19:36.588Z,26.93
2022-12-19T00:22:38.454Z,27.93
2022-12-19T00:25:53.586Z,26.77
2022-12-19T00:29:08.708Z,25.77
2022-12-19T00:32:19.091Z,23.35
2022-12-19T00:35:27.601Z,24.87
2022-12-19T00:38:36.453Z,23.13
2022-12-19T00:41:46.578Z,22.90
2022-12-19T00:45:01.651Z,21.90
2022-12-19T00:48:10.198Z,22.40
2022-12-19T00:51:24.770Z,21.53
2022-12-19T00:54:33.203Z,22.67
2022-12-19T00:57:41.542Z,23.50
2022-12-19T01:00:56.611Z,22.33
2022-12-19T01:04:27.115Z,21.42
2022-12-19T01:07:34.546Z,21.60
2022-12-19T01:10:47.850Z,21.03
2022-12-19T01:13:56.575Z,22.25
2022-12-19T01:17:11.649Z,24.37
2022-12-19T01:20:16.675Z,22.30
2022-12-19T01:23:32.563Z,22.37
2022-12-19T01:26:41.284Z,21.63
2022-12-19T01:29:55.533Z,22.27
2022-12-19T01:33:04.570Z,20.85
2022-12-19T01:36:13.233Z,21.20
2022-12-19T01:39:22.566Z,22.30
2022-12-19T01:42:36.829Z,22.13
2022-12-19T01:45:46.241Z,21.08
2022-12-19T01:49:02.695Z,21.20
2022-12-19T01:52:13.481Z,22.92
2022-12-19T01:55:40.602Z,21.80
2022-12-19T01:58:44.477Z,22.33
2022-12-19T02:02:06.714Z,20.37
2022-12-19T02:05:15.566Z,21.67
2022-12-19T02:08:32.663Z,20.17
2022-12-19T02:11:42.582Z,22.53
2022-12-19T02:15:02.296Z,20.50
2022-12-19T02:18:26.547Z,21.02
2022-12-19T02:21:54.816Z,20.67
2022-12-19T02:25:29.620Z,20.50
2022-12-19T02:29:17.632Z,22.00
2022-12-19T02:32:34.718Z,21.63
2022-12-19T02:35:59.584Z,22.05
2022-12-19T02:39:16.508Z,21.62
2022-12-19T02:42:34.589Z,21.65
2022-12-19T02:45:44.985Z,23.20
2022-12-19T02:48:54.652Z,19.70
2022-12-19T02:52:39.665Z,21.55
2022-12-19T02:56:10.809Z,21.73
2022-12-19T02:59:55.635Z,21.98
2022-12-19T03:03:16.197Z,22.00
2022-12-19T03:06:37.652Z,21.50
2022-12-19T03:10:03.996Z,19.73
2022-12-19T03:13:20.648Z,21.35
2022-12-19T03:16:35.688Z,21.55
2022-12-19T03:19:40.161Z,21.70
2022-12-19T03:22:54.694Z,20.97
2022-12-19T03:26:02.488Z,21.23
2022-12-19T03:29:22.663Z,21.87
2022-12-19T03:32:26.473Z,20.35
2022-12-19T03:35:43.643Z,21.30
2022-12-19T03:38:47.571Z,21.97
2022-12-19T03:42:05.597Z,20.33
2022-12-19T03:45:08.705Z,20.52
2022-12-19T03:48:32.676Z,23.80
2022-12-19T03:51:59.236Z,21.90
2022-12-19T03:55:21.329Z,21.57
2022-12-19T03:58:40.646Z,23.35
2022-12-19T04:01:50.723Z,22.23
2022-12-19T04:05:03.249Z,21.48
2022-12-19T04:08:18.652Z,20.83
2022-12-19T04:11:38.637Z,21.70
2022-12-19T04:14:48.603Z,22.42
2022-12-19T04:18:01.740Z,22.13
2022-12-19T04:21:26.681Z,23.67
2022-12-19T04:24:34.867Z,21.33
2022-12-19T04:27:54.733Z,24.37
2022-12-19T04:30:57.892Z,23.55
2022-12-19T04:34:12.633Z,21.95
2022-12-19T04:37:14.554Z,20.00
2022-12-19T04:40:29.648Z,21.37
2022-12-19T04:43:37.668Z,21.53
2022-12-19T04:46:52.670Z,21.98
2022-12-19T04:49:54.516Z,20.67
2022-12-19T04:53:09.714Z,21.48
2022-12-19T04:56:11.792Z,21.60
2022-12-19T04:59:26.695Z,24.80
2022-12-19T05:02:35.886Z,22.85
2022-12-19T05:05:50.690Z,22.33
2022-12-19T05:09:05.679Z,21.83
2022-12-19T05:12:14.426Z,23.83
2022-12-19T05:15:22.717Z,20.83
2022-12-19T05:18:31.575Z,24.65
2022-12-19T05:21:39.704Z,23.50
2022-12-19T05:24:48.334Z,23.85
2022-12-19T05:27:56.657Z,23.97
2022-12-19T05:31:08.839Z,24.23
2022-12-19T05:34:17.807Z,24.05
2022-12-19T05:37:32.686Z,23.42
2022-12-19T05:40:34.571Z,22.35
2022-12-19T05:43:51.765Z,23.30
2022-12-19T05:46:53.790Z,22.93
2022-12-19T05:50:08.681Z,23.12
2022-12-19T05:53:10.496Z,21.95
2022-12-19T05:56:28.734Z,23.17
2022-12-19T05:59:30.735Z,24.27
2022-12-19T06:02:45.912Z,22.10
2022-12-19T06:05:48.016Z,23.77
2022-12-19T06:09:05.738Z,23.55
2022-12-19T06:12:21.012Z,23.77
2022-12-19T06:15:35.721Z,22.40
2022-12-19T06:18:46.141Z,24.50
2022-12-19T06:22:00.740Z,22.98
2022-12-19T06:25:16.664Z,23.58
2022-12-19T06:28:18.512Z,22.17
2022-12-19T06:31:33.705Z,24.17
2022-12-19T06:38:10.768Z,21.52
2022-12-19T06:41:19.692Z,21.52
2022-12-19T06:44:34.728Z,22.90
2022-12-19T06:47:43.716Z,23.17
2022-12-19T06:50:52.353Z,21.83
2022-12-19T06:54:00.694Z,20.98
2022-12-19T06:57:09.403Z,17.12
2022-12-19T07:00:19.679Z,20.92
2022-12-19T07:03:44.699Z,23.03
2022-12-19T07:06:52.820Z,21.87
2022-12-19T07:10:15.755Z,19.23
2022-12-19T07:13:17.720Z,22.10
2022-12-19T07:16:34.016Z,20.50
2022-12-19T07:19:42.700Z,20.37
2022-12-19T07:22:57.891Z,17.53
2022-12-19T07:25:59.796Z,19.15
2022-12-19T07:29:16.743Z,20.10
2022-12-19T07:32:18.786Z,17.25
2022-12-19T07:35:33.827Z,16.27
2022-12-19T07:38:37.395Z,17.87
2022-12-19T07:41:51.701Z,21.05
2022-12-19T07:44:53.650Z,19.37
2022-12-19T07:48:13.117Z,21.00
2022-12-19T07:51:21.782Z,22.10
2022-12-19T07:54:30.640Z,20.13
2022-12-19T07:57:45.753Z,20.33
2022-12-19T08:01:06.219Z,21.10
2022-12-19T08:04:23.745Z,18.95
2022-12-19T08:07:45.732Z,18.47
2022-12-19T08:11:00.797Z,20.30
2022-12-19T08:14:09.805Z,19.05
2022-12-19T08:17:20.753Z,18.05
2022-12-19T08:20:36.771Z,18.80
2022-12-19T08:23:52.325Z,16.63
2022-12-19T08:27:00.768Z,16.70
2022-12-19T08:30:10.035Z,15.40
2022-12-19T08:33:18.752Z,15.82
2022-12-19T08:36:33.766Z,14.90
2022-12-19T08:39:42.565Z,10.93
2022-12-19T08:42:57.832Z,10.80
2022-12-19T08:46:06.828Z,12.98
2022-12-19T08:49:15.795Z,12.63
2022-12-19T08:52:23.812Z,12.00
2022-12-19T08:55:38.761Z,11.50
2022-12-19T08:58:48.809Z,22.40
2022-12-19T09:01:57.601Z,14.40
2022-12-19T09:06:05.047Z,12.00
2022-12-19T09:08:47.761Z,12.77
2022-12-19T09:11:56.423Z,13.10
2022-12-19T09:15:10.911Z,13.20
2022-12-19T09:18:12.740Z,19.48
2022-12-19T09:21:30.050Z,14.18
2022-12-19T09:24:31.979Z,19.75
2022-12-19T09:28:25.211Z,15.80
2022-12-19T09:31:14.983Z,10.37
2022-12-19T09:34:37.751Z,11.07
2022-12-19T09:37:46.804Z,10.45
2022-12-19T09:41:26.750Z,12.93
2022-12-19T09:45:15.434Z,13.27
2022-12-19T09:48:24.560Z,9.83
2022-12-19T09:51:45.136Z,15.05
2022-12-19T09:55:00.835Z,14.10
2022-12-19T09:58:34.756Z,15.85
2022-12-19T10:02:02.915Z,17.10
2022-12-19T10:05:48.479Z,15.73
2022-12-19T10:10:52.871Z,14.32
2022-12-19T10:12:54.843Z,22.83
2022-12-19T10:16:19.912Z,12.75
2022-12-19T10:19:41.921Z,14.00
2022-12-19T10:23:06.014Z,15.30
2022-12-19T10:26:30.304Z,13.15
2022-12-19T10:29:57.398Z,13.70
2022-12-19T10:33:29.782Z,13.62
2022-12-19T10:37:23.763Z,13.43
2022-12-19T10:40:27.545Z,13.23
2022-12-19T10:43:51.808Z,15.00
2022-12-19T10:47:00.805Z,16.20
2022-12-19T10:50:18.029Z,15.20
2022-12-19T10:53:29.965Z,23.10
2022-12-19T10:56:38.876Z,22.27
2022-12-19T11:00:12.097Z,13.85
2022-12-19T11:03:29.607Z,12.05
2022-12-19T11:07:11.488Z,13.23
2022-12-19T11:14:07.113Z,12.13
2022-12-19T11:19:51.724Z,14.20
2022-12-19T11:26:02.251Z,12.82
2022-12-19T11:29:54.531Z,12.60
2022-12-19T11:30:09.735Z,12.23
2022-12-19T11:30:41.364Z,13.90
2022-12-19T11:32:42.955Z,12.10
2022-12-19T11:35:57.845Z,12.93
2022-12-19T11:39:16.752Z,14.90
2022-12-19T11:42:31.863Z,11.88
2022-12-19T11:45:51.441Z,10.60
2022-12-19T11:49:16.864Z,12.80
2022-12-19T11:53:04.443Z,12.55
2022-12-19T11:56:16.554Z,14.73
2022-12-19T11:59:38.915Z,14.00
2022-12-19T12:03:07.747Z,12.97
2022-12-19T12:06:31.106Z,13.80
2022-12-19T12:14:34.301Z,14.05
2022-12-19T12:22:34.754Z,12.18
2022-12-19T12:30:59.231Z,13.43
2022-12-19T12:31:13.554Z,13.33
2022-12-19T12:31:46.928Z,14.00
2022-12-19T12:31:58.824Z,12.77
2022-12-19T12:35:51.512Z,14.30
2022-12-19T12:38:14.618Z,15.65
2022-12-19T12:41:08.447Z,14.53
2022-12-19T12:44:32.806Z,26.23
2022-12-19T12:47:47.832Z,14.13
2022-12-19T12:50:54.975Z,14.10
2022-12-19T12:54:18.894Z,13.18
2022-12-19T12:57:41.140Z,14.13
2022-12-19T13:01:14.966Z,11.10
2022-12-19T13:04:32.014Z,12.65
2022-12-19T13:07:53.666Z,9.20
2022-12-19T13:11:46.877Z,13.88
2022-12-19T13:14:57.900Z,13.83
2022-12-19T13:18:28.650Z,13.63
2022-12-19T13:22:06.839Z,14.82
2022-12-19T13:25:53.864Z,13.38
2022-12-19T13:29:32.191Z,13.77
2022-12-19T13:33:15.965Z,12.80
2022-12-19T13:39:51.094Z,12.37
2022-12-19T13:40:33.270Z,11.88
2022-12-19T13:43:48.913Z,15.57
2022-12-19T13:46:57.513Z,13.15
2022-12-19T13:50:13.916Z,12.87
2022-12-19T13:53:24.868Z,13.43
2022-12-19T13:56:36.947Z,12.88
2022-12-19T14:00:01.388Z,14.43
2022-12-19T14:03:10.102Z,16.95
2022-12-19T14:06:29.919Z,9.83
2022-12-19T14:11:27.155Z,14.90
2022-12-19T14:13:51.183Z,12.82
2022-12-19T14:16:54.065Z,12.80
2022-12-19T14:22:06.091Z,13.62
2022-12-19T14:23:47.872Z,12.83
2022-12-19T14:28:22.085Z,11.40
2022-12-19T14:30:35.891Z,14.63
2022-12-19T14:37:54.662Z,11.65
2022-12-19T14:41:08.180Z,12.80
2022-12-19T14:52:08.592Z,10.93
2022-12-19T14:52:35.251Z,11.73
2022-12-19T14:54:30.695Z,13.23
2022-12-19T14:56:07.857Z,12.50
2022-12-19T14:58:52.688Z,11.57
2022-12-19T15:02:33.350Z,11.93
2022-12-19T15:05:36.083Z,14.35
2022-12-19T15:11:00.470Z,14.00
2022-12-19T15:14:20.876Z,16.02
2022-12-19T15:16:25.689Z,11.37
2022-12-19T15:19:41.036Z,12.90
2022-12-19T15:22:49.924Z,15.48
2022-12-19T15:26:06.503Z,12.18
2022-12-19T15:29:22.069Z,12.32
2022-12-19T15:32:31.112Z,12.00
2022-12-19T15:35:40.009Z,14.63
2022-12-19T15:38:55.082Z,14.60
2022-12-19T15:42:07.101Z,14.05
2022-12-19T15:45:16.412Z,14.60
2022-12-19T15:48:31.967Z,13.23
2022-12-19T15:51:46.929Z,11.40
2022-12-19T15:54:54.947Z,11.98
2022-12-19T15:58:12.947Z,11.20
2022-12-19T16:01:15.027Z,11.63
2022-12-19T16:04:32.232Z,15.33
2022-12-19T16:07:40.985Z,14.50
2022-12-19T16:11:01.892Z,14.30
2022-12-19T16:14:10.991Z,11.95
2022-12-19T16:17:22.502Z,14.05
2022-12-19T16:20:39.952Z,13.70
2022-12-19T16:23:48.135Z,12.63
2022-12-19T16:27:05.063Z,14.00
2022-12-19T16:30:23.967Z,12.27
2022-12-19T16:33:32.896Z,13.15
2022-12-19T16:36:40.914Z,14.20
2022-12-19T16:39:56.077Z,11.23
2022-12-19T16:43:12.647Z,12.95
2022-12-19T16:46:30.042Z,14.23
2022-12-19T16:49:32.208Z,14.63
2022-12-19T16:52:46.967Z,15.50
2022-12-19T16:55:57.042Z,15.33
2022-12-19T16:59:09.028Z,14.45
2022-12-19T17:02:46.222Z,11.63
2022-12-19T17:05:54.995Z,14.98
2022-12-19T17:09:10.027Z,12.77
2022-12-19T17:12:26.141Z,13.70
2022-12-19T17:15:42.987Z,13.05
2022-12-19T17:18:46.102Z,16.10
2022-12-19T17:22:01.102Z,14.00
2022-12-19T17:25:24.089Z,13.33
2022-12-19T17:28:34.050Z,16.60
2022-12-19T17:31:50.016Z,15.95
2022-12-19T17:34:58.969Z,16.23
2022-12-19T17:38:20.039Z,15.35
2022-12-19T17:41:28.558Z,15.83
2022-12-19T17:44:43.076Z,16.50
2022-12-19T17:47:58.424Z,15.93
2022-12-19T17:51:13.069Z,20.08
2022-12-19T17:54:21.009Z,16.58
2022-12-19T17:57:29.522Z,16.30
2022-12-19T18:00:45.094Z,16.47
2022-12-19T18:03:49.966Z,16.05
2022-12-19T18:07:04.961Z,17.10
2022-12-19T18:10:22.021Z,16.33
2022-12-19T18:13:37.315Z,15.67
2022-12-19T18:16:46.238Z,16.40
2022-12-19T18:19:56.233Z,14.95
2022-12-19T18:23:05.981Z,15.05
2022-12-19T18:26:14.584Z,16.58
2022-12-19T18:29:22.972Z,15.23
2022-12-19T18:32:33.834Z,14.30
2022-12-19T18:35:46.996Z,15.23
2022-12-19T18:38:56.653Z,13.20
2022-12-19T18:42:26.017Z,16.05
2022-12-19T18:45:36.107Z,16.67
2022-12-19T18:48:52.200Z,15.40
2022-12-19T18:52:01.068Z,15.30
2022-12-19T18:55:17.741Z,16.20
2022-12-19T18:58:27.309Z,15.63
2022-12-19T19:01:43.626Z,15.20
2022-12-19T19:04:58.008Z,15.13
2022-12-19T19:08:12.890Z,15.23
2022-12-19T19:11:29.469Z,15.82
2022-12-19T19:14:44.311Z,16.92
2022-12-19T19:17:55.105Z,15.97
2022-12-19T19:21:12.126Z,17.33
2022-12-19T19:24:25.131Z,16.15
2022-12-19T19:27:33.626Z,15.30
2022-12-19T19:30:45.083Z,15.48
2022-12-19T19:34:07.136Z,15.37
2022-12-19T19:37:12.761Z,17.40
2022-12-19T19:40:30.043Z,15.00
2022-12-19T19:43:41.580Z,14.98
2022-12-19T19:46:59.121Z,18.30
2022-12-19T19:50:08.023Z,15.73
2022-12-19T19:53:24.057Z,16.07
2022-12-19T19:56:32.096Z,16.67
2022-12-19T19:59:47.173Z,16.25
2022-12-19T20:02:57.572Z,16.98
2022-12-19T20:06:13.080Z,18.57
2022-12-19T20:09:14.954Z,16.50
2022-12-19T20:12:31.042Z,17.62
2022-12-19T20:15:44.405Z,16.08
2022-12-19T20:18:58.086Z,15.07
2022-12-19T20:22:11.030Z,18.13
2022-12-19T20:25:19.167Z,17.30
2022-12-19T20:28:35.329Z,17.12
2022-12-19T20:31:39.179Z,15.45
2022-12-19T20:34:54.326Z,15.60
2022-12-19T20:38:03.515Z,16.47
2022-12-19T20:41:13.031Z,17.13
2022-12-19T20:44:28.074Z,17.27
2022-12-19T20:47:43.079Z,18.02
2022-12-19T20:50:51.048Z,17.08
2022-12-19T20:54:06.105Z,17.23
2022-12-19T20:57:08.038Z,16.13
2022-12-19T21:00:24.028Z,18.05
2022-12-19T21:03:28.391Z,17.15
2022-12-19T21:06:44.050Z,16.35
2022-12-19T21:09:52.669Z,16.93
2022-12-19T21:13:08.129Z,17.87
2022-12-19T21:16:26.156Z,16.52
2022-12-19T21:19:35.140Z,17.25
2022-12-19T21:22:43.664Z,17.65
2022-12-19T21:25:52.218Z,17.73
2022-12-19T21:29:07.205Z,17.87
2022-12-19T21:32:13.463Z,16.85
2022-12-19T21:35:32.243Z,18.15
2022-12-19T21:38:34.983Z,16.70
2022-12-19T21:41:50.058Z,18.63
2022-12-19T21:44:51.805Z,18.10
2022-12-19T21:48:08.627Z,19.15
2022-12-19T21:51:26.089Z,17.73
2022-12-19T21:54:34.730Z,15.95
2022-12-19T21:57:49.072Z,17.83
2022-12-19T22:01:08.320Z,17.47
2022-12-19T22:04:21.299Z,17.65
2022-12-19T22:07:29.873Z,17.42
2022-12-19T22:10:38.302Z,19.02
2022-12-19T22:14:00.148Z,18.57
2022-12-19T22:17:02.055Z,18.67
2022-12-19T22:20:17.085Z,18.02
2022-12-19T22:23:18.937Z,19.08
2022-12-19T22:26:36.151Z,18.17
2022-12-19T22:29:37.913Z,20.83
2022-12-19T22:32:53.174Z,18.20
2022-12-19T22:36:05.062Z,18.58
2022-12-19T22:39:17.284Z,18.33
2022-12-19T22:42:34.131Z,18.92
2022-12-19T22:45:49.191Z,17.77
2022-12-19T22:49:06.201Z,18.03
2022-12-19T22:52:08.119Z,17.87
2022-12-19T22:55:23.104Z,18.10
2022-12-19T22:58:24.985Z,18.90
2022-12-19T23:01:43.544Z,20.27
2022-12-19T23:04:45.667Z,18.47
2022-12-19T23:08:00.293Z,18.50
2022-12-19T23:11:25.372Z,19.10
2022-12-19T23:14:33.685Z,16.98
2022-12-19T23:17:42.220Z,18.27
2022-12-19T23:21:09.373Z,19.30
2022-12-19T23:24:19.135Z,18.42
2022-12-19T23:27:34.114Z,19.15
2022-12-19T23:30:37.297Z,17.30
2022-12-19T23:33:52.123Z,18.83
2022-12-19T23:37:10.645Z,18.97
2022-12-19T23:40:26.256Z,17.67
2022-12-19T23:43:29.178Z,17.80
2022-12-19T23:46:44.130Z,19.65
2022-12-19T23:49:53.130Z,18.37
2022-12-19T23:53:08.263Z,18.73
2022-12-19T23:56:22.153Z,18.45
2022-12-19T23:59:30.814Z,18.35
